createdAt,value
2023-03-03T00:01:30.418Z,10.89
2023-03-03T00:03:57.382Z,10.92
2023-03-03T00:06:24.778Z,11.34
2023-03-03T00:08:51.709Z,11.61
2023-03-03T00:11:18.254Z,11.69
2023-03-03T00:13:55.870Z,11.81
2023-03-03T00:16:35.218Z,11.99
2023-03-03T00:19:02.179Z,11.67
2023-03-03T00:21:32.249Z,11.52
2023-03-03T00:24:35.146Z,11.57
2023-03-03T00:27:16.563Z,11.60
2023-03-03T00:29:49.229Z,11.45
2023-03-03T00:32:15.887Z,11.67
2023-03-03T00:34:43.562Z,11.85
2023-03-03T00:37:25.338Z,11.47
2023-03-03T00:39:51.969Z,11.39
2023-03-03T00:42:19.346Z,11.51
2023-03-03T00:44:55.983Z,11.51
2023-03-03T00:47:38.000Z,11.53
2023-03-03T00:50:07.680Z,11.41
2023-03-03T00:52:40.668Z,11.62
2023-03-03T00:55:08.626Z,11.70
2023-03-03T00:57:35.179Z,11.76
2023-03-03T01:00:04.668Z,11.73
2023-03-03T01:02:32.026Z,11.38
2023-03-03T01:04:58.586Z,11.30
2023-03-03T01:07:25.551Z,11.33
2023-03-03T01:09:52.173Z,11.06
2023-03-03T01:12:18.666Z,10.86
2023-03-03T01:14:45.879Z,10.93
2023-03-03T01:17:12.591Z,10.93
2023-03-03T01:19:39.472Z,10.96
2023-03-03T01:22:06.306Z,11.08
2023-03-03T01:24:33.487Z,10.95
2023-03-03T01:27:00.147Z,10.85
2023-03-03T01:29:26.885Z,10.80
2023-03-03T01:31:53.748Z,11.09
2023-03-03T01:34:20.616Z,10.96
2023-03-03T01:36:47.163Z,10.99
2023-03-03T01:39:13.854Z,10.95
2023-03-03T01:41:40.532Z,11.15
2023-03-03T01:44:11.644Z,11.05
2023-03-03T01:47:13.114Z,11.08
2023-03-03T01:49:51.164Z,10.76
2023-03-03T01:52:27.757Z,10.87
2023-03-03T01:54:59.113Z,10.71
2023-03-03T01:57:35.508Z,10.68
2023-03-03T02:00:05.083Z,10.52
2023-03-03T02:02:41.215Z,10.28
2023-03-03T02:05:09.064Z,10.27
2023-03-03T02:07:36.455Z,10.08
2023-03-03T02:10:16.775Z,10.32
2023-03-03T02:12:54.692Z,10.69
2023-03-03T02:15:28.130Z,10.26
2023-03-03T02:18:04.789Z,10.12
2023-03-03T02:20:52.251Z,9.92
2023-03-03T02:23:29.344Z,9.72
2023-03-03T02:25:58.788Z,10.03
2023-03-03T02:28:31.368Z,10.02
2023-03-03T02:31:02.036Z,10.10
2023-03-03T02:33:29.634Z,10.04
2023-03-03T02:35:56.661Z,9.80
2023-03-03T02:38:32.311Z,9.94
2023-03-03T02:41:11.902Z,10.04
2023-03-03T02:43:52.205Z,10.19
2023-03-03T02:46:19.274Z,10.35
2023-03-03T02:48:45.750Z,10.16
2023-03-03T02:51:12.438Z,9.95
2023-03-03T02:53:39.350Z,10.01
2023-03-03T02:56:09.317Z,9.71
2023-03-03T02:58:37.361Z,9.84
2023-03-03T03:01:05.237Z,9.63
2023-03-03T03:03:32.436Z,9.53
2023-03-03T03:06:02.270Z,9.82
2023-03-03T03:08:28.824Z,9.90
2023-03-03T03:10:56.904Z,10.10
2023-03-03T03:13:25.965Z,10.31
2023-03-03T03:15:52.680Z,10.18
2023-03-03T03:18:19.265Z,10.44
2023-03-03T03:20:48.371Z,10.24
2023-03-03T03:23:16.857Z,9.99
2023-03-03T03:25:46.390Z,10.22
2023-03-03T03:28:19.039Z,10.17
2023-03-03T03:30:46.246Z,9.84
2023-03-03T03:33:13.358Z,9.93
2023-03-03T03:35:45.390Z,9.49
2023-03-03T03:38:14.241Z,8.96
2023-03-03T03:40:42.472Z,9.08
2023-03-03T03:43:09.533Z,8.98
2023-03-03T03:45:36.177Z,9.27
2023-03-03T03:48:04.079Z,9.68
2023-03-03T03:50:32.057Z,9.43
2023-03-03T03:52:58.761Z,9.57
2023-03-03T03:55:25.513Z,9.41
2023-03-03T03:57:52.468Z,9.62
2023-03-03T04:00:19.432Z,9.52
2023-03-03T04:02:53.300Z,9.82
2023-03-03T04:05:20.221Z,10.03
2023-03-03T04:07:47.284Z,10.40
2023-03-03T04:10:15.671Z,10.39
2023-03-03T04:12:42.296Z,10.01
2023-03-03T04:15:14.349Z,10.16
2023-03-03T04:17:42.080Z,9.72
2023-03-03T04:20:12.641Z,9.53
2023-03-03T04:22:39.490Z,9.53
2023-03-03T04:25:06.892Z,9.35
2023-03-03T04:27:38.748Z,9.63
2023-03-03T04:30:06.793Z,10.11
2023-03-03T04:32:33.967Z,10.38
2023-03-03T04:35:08.154Z,10.31
2023-03-03T04:37:38.834Z,10.12
2023-03-03T04:40:07.905Z,9.95
2023-03-03T04:42:35.570Z,9.90
2023-03-03T04:45:04.306Z,9.62
2023-03-03T04:47:32.459Z,9.66
2023-03-03T04:49:59.269Z,9.60
2023-03-03T04:52:26.505Z,9.89
2023-03-03T04:54:53.065Z,10.24
2023-03-03T04:57:19.752Z,10.56
2023-03-03T04:59:46.424Z,10.03
2023-03-03T05:02:13.154Z,10.08
2023-03-03T05:04:39.823Z,9.94
2023-03-03T05:07:06.446Z,10.18
2023-03-03T05:09:33.084Z,9.92
2023-03-03T05:11:59.802Z,9.74
2023-03-03T05:14:27.025Z,9.78
2023-03-03T05:16:53.925Z,9.57
2023-03-03T05:19:20.474Z,9.30
2023-03-03T05:21:47.056Z,9.49
2023-03-03T05:24:14.347Z,9.35
2023-03-03T05:26:41.486Z,9.38
2023-03-03T05:29:09.093Z,9.25
2023-03-03T05:31:35.664Z,9.45
2023-03-03T05:34:02.261Z,9.45
2023-03-03T05:36:28.874Z,9.70
2023-03-03T05:38:55.780Z,9.89
2023-03-03T05:41:22.420Z,10.01
2023-03-03T05:43:49.073Z,10.13
2023-03-03T05:46:16.833Z,10.31
2023-03-03T05:48:43.468Z,10.53
2023-03-03T05:51:10.006Z,10.56
2023-03-03T05:53:36.642Z,10.05
2023-03-03T05:56:03.441Z,9.79
2023-03-03T05:58:30.276Z,10.18
2023-03-03T06:00:56.905Z,10.48
2023-03-03T06:03:23.486Z,10.65
2023-03-03T06:05:49.986Z,10.59
2023-03-03T06:08:16.559Z,10.57
2023-03-03T06:10:43.092Z,10.44
2023-03-03T06:13:11.625Z,10.40
2023-03-03T06:15:38.660Z,10.52
2023-03-03T06:18:05.317Z,10.61
2023-03-03T06:20:32.995Z,10.56
2023-03-03T06:22:59.486Z,10.79
2023-03-03T06:25:26.050Z,10.68
2023-03-03T06:27:52.662Z,10.26
2023-03-03T06:30:19.342Z,10.16
2023-03-03T06:32:46.107Z,10.34
2023-03-03T06:35:12.844Z,10.66
2023-03-03T06:37:39.416Z,10.86
2023-03-03T06:40:06.893Z,10.81
2023-03-03T06:42:33.429Z,10.85
2023-03-03T06:45:00.238Z,11.02
2023-03-03T06:47:26.741Z,10.96
2023-03-03T06:49:53.376Z,11.07
2023-03-03T06:52:25.454Z,11.01
2023-03-03T06:54:57.923Z,10.99
2023-03-03T06:57:33.266Z,11.18
2023-03-03T07:00:15.472Z,11.33
2023-03-03T07:02:42.061Z,11.19
2023-03-03T07:05:16.021Z,11.12
2023-03-03T07:07:42.829Z,11.21
2023-03-03T07:10:20.474Z,11.14
2023-03-03T07:12:47.053Z,11.07
2023-03-03T07:15:13.676Z,11.08
2023-03-03T07:17:45.459Z,10.85
2023-03-03T07:20:35.156Z,10.89
2023-03-03T07:23:32.941Z,10.86
2023-03-03T07:25:59.502Z,10.98
2023-03-03T07:28:32.824Z,10.93
2023-03-03T07:30:59.906Z,10.92
2023-03-03T07:33:35.021Z,10.89
2023-03-03T07:36:03.924Z,11.03
2023-03-03T07:38:52.858Z,10.83
2023-03-03T07:41:25.752Z,10.69
2023-03-03T07:44:11.331Z,10.44
2023-03-03T07:46:43.508Z,10.64
2023-03-03T07:49:22.883Z,10.74
2023-03-03T07:52:00.144Z,10.88
2023-03-03T07:54:37.570Z,10.95
2023-03-03T07:57:10.087Z,10.78
2023-03-03T07:59:38.729Z,10.37
2023-03-03T08:02:23.787Z,10.44
2023-03-03T08:04:52.441Z,10.51
2023-03-03T08:07:23.343Z,10.44
2023-03-03T08:09:53.898Z,10.42
2023-03-03T08:12:41.866Z,10.35
2023-03-03T08:15:36.481Z,10.15
2023-03-03T08:18:19.119Z,10.07
2023-03-03T08:20:51.188Z,10.22
2023-03-03T08:23:19.621Z,10.36
2023-03-03T08:25:46.951Z,10.60
2023-03-03T08:28:14.321Z,10.68
2023-03-03T08:30:41.708Z,10.59
2023-03-03T08:33:08.758Z,10.57
2023-03-03T08:35:35.304Z,10.39
2023-03-03T08:38:01.981Z,10.42
2023-03-03T08:40:28.965Z,10.68
2023-03-03T08:42:55.581Z,11.00
2023-03-03T08:45:22.141Z,10.95
2023-03-03T08:47:48.739Z,11.02
2023-03-03T08:50:15.824Z,11.00
2023-03-03T08:52:42.611Z,10.95
2023-03-03T08:55:09.348Z,10.74
2023-03-03T08:57:36.119Z,10.80
2023-03-03T09:00:02.982Z,10.67
2023-03-03T09:02:29.536Z,10.82
2023-03-03T09:04:56.198Z,10.90
2023-03-03T09:07:22.782Z,10.98
2023-03-03T09:09:49.321Z,11.01
2023-03-03T09:12:40.446Z,11.01
2023-03-03T09:15:18.875Z,11.24
2023-03-03T09:17:46.638Z,11.24
2023-03-03T09:20:34.997Z,11.27
2023-03-03T09:23:27.750Z,11.22
2023-03-03T09:25:54.480Z,10.85
2023-03-03T09:28:26.312Z,10.71
2023-03-03T09:30:54.493Z,10.75
2023-03-03T09:33:31.303Z,11.06
2023-03-03T09:36:35.517Z,10.89
2023-03-03T09:39:16.220Z,10.67
2023-03-03T09:42:08.787Z,10.74
2023-03-03T09:44:54.192Z,10.68
2023-03-03T09:47:29.855Z,10.69
2023-03-03T09:50:15.632Z,10.72
2023-03-03T09:52:45.245Z,10.55
2023-03-03T09:55:25.582Z,10.45
2023-03-03T09:58:11.403Z,10.61
2023-03-03T10:00:49.915Z,10.87
2023-03-03T10:03:34.007Z,11.04
2023-03-03T10:06:01.607Z,11.20
2023-03-03T10:08:42.547Z,11.50
2023-03-03T10:11:09.114Z,11.68
2023-03-03T10:13:47.465Z,11.49
2023-03-03T10:16:54.245Z,11.16
2023-03-03T10:19:34.157Z,11.14
2023-03-03T10:22:28.755Z,11.01
2023-03-03T10:25:04.976Z,10.73
2023-03-03T10:27:59.106Z,10.93
2023-03-03T10:30:54.773Z,10.99
2023-03-03T10:33:48.059Z,10.90
2023-03-03T10:36:34.413Z,10.92
2023-03-03T10:39:34.474Z,10.84
2023-03-03T10:42:20.950Z,10.99
2023-03-03T10:45:07.858Z,10.61
2023-03-03T10:48:06.239Z,10.98
2023-03-03T10:50:51.958Z,11.05
2023-03-03T10:53:22.064Z,11.06
2023-03-03T10:55:51.783Z,11.23
2023-03-03T10:58:33.891Z,11.51
2023-03-03T11:01:48.529Z,11.11
2023-03-03T11:04:41.346Z,11.54
2023-03-03T11:07:17.387Z,11.67
2023-03-03T11:10:05.908Z,11.73
2023-03-03T11:12:50.753Z,11.47
2023-03-03T11:15:36.420Z,11.49
2023-03-03T11:18:23.821Z,11.74
2023-03-03T11:21:13.161Z,11.21
2023-03-03T11:23:39.665Z,11.54
2023-03-03T11:26:23.857Z,11.88
2023-03-03T11:29:00.769Z,12.41
2023-03-03T11:31:45.666Z,12.22
2023-03-03T11:34:48.538Z,12.35
2023-03-03T11:37:28.040Z,12.56
2023-03-03T11:40:01.680Z,12.48
2023-03-03T11:42:33.881Z,12.32
2023-03-03T11:45:17.768Z,12.07
2023-03-03T11:47:56.640Z,12.19
2023-03-03T11:50:35.406Z,12.03
2023-03-03T11:53:37.468Z,12.24
2023-03-03T11:56:10.817Z,12.73
2023-03-03T11:59:14.769Z,12.46
2023-03-03T12:01:57.313Z,12.49
2023-03-03T12:04:35.812Z,12.48
2023-03-03T12:07:22.838Z,12.50
2023-03-03T12:10:02.330Z,12.59
2023-03-03T12:12:42.534Z,12.69
2023-03-03T12:15:28.603Z,12.69
2023-03-03T12:18:12.815Z,12.33
2023-03-03T12:21:18.130Z,12.77
2023-03-03T12:24:23.558Z,13.12
2023-03-03T12:27:22.356Z,13.25
2023-03-03T12:30:14.898Z,13.31
2023-03-03T12:32:56.451Z,12.89
2023-03-03T12:35:36.762Z,12.93
2023-03-03T12:38:15.298Z,13.27
2023-03-03T12:40:57.028Z,13.50
2023-03-03T12:43:42.939Z,13.29
2023-03-03T12:46:29.393Z,13.44
2023-03-03T12:48:56.210Z,13.85
2023-03-03T12:51:32.027Z,12.94
2023-03-03T12:54:17.734Z,13.12
2023-03-03T12:57:00.010Z,13.21
2023-03-03T12:59:41.974Z,13.34
2023-03-03T13:02:26.747Z,13.17
2023-03-03T13:05:18.960Z,13.32
2023-03-03T13:08:08.835Z,13.15
2023-03-03T13:10:43.026Z,13.14
2023-03-03T13:13:21.724Z,13.19
2023-03-03T13:16:06.132Z,13.60
2023-03-03T13:18:56.751Z,13.67
2023-03-03T13:21:40.417Z,13.39
2023-03-03T13:24:21.341Z,13.82
2023-03-03T13:26:53.286Z,14.06
2023-03-03T13:29:23.204Z,13.78
2023-03-03T13:31:54.620Z,13.58
2023-03-03T13:34:34.928Z,14.04
2023-03-03T13:37:08.224Z,14.08
2023-03-03T13:39:42.978Z,14.13
2023-03-03T13:42:54.340Z,13.77
2023-03-03T13:45:31.166Z,13.98
2023-03-03T13:48:07.046Z,14.17
2023-03-03T13:50:44.791Z,14.23
2023-03-03T13:53:30.626Z,14.25
2023-03-03T13:55:57.269Z,14.45
2023-03-03T13:58:52.462Z,14.71
2023-03-03T14:01:27.492Z,14.90
2023-03-03T14:04:05.931Z,14.61
2023-03-03T14:06:33.021Z,14.82
2023-03-03T14:09:11.405Z,14.55
2023-03-03T14:11:47.432Z,14.10
2023-03-03T14:14:19.742Z,14.50
2023-03-03T14:16:52.481Z,14.51
2023-03-03T14:19:25.990Z,14.64
2023-03-03T14:22:04.095Z,15.00
2023-03-03T14:24:31.226Z,15.08
2023-03-03T14:27:00.065Z,14.86
2023-03-03T14:29:26.911Z,14.71
2023-03-03T14:31:55.351Z,14.80
2023-03-03T14:34:40.919Z,14.77
2023-03-03T14:37:23.435Z,15.04
2023-03-03T14:40:02.086Z,14.79
2023-03-03T14:42:51.911Z,14.67
2023-03-03T14:45:31.240Z,14.56
2023-03-03T14:47:59.521Z,15.20
2023-03-03T14:50:33.307Z,15.53
2023-03-03T14:53:10.307Z,15.58
2023-03-03T14:55:40.331Z,15.55
2023-03-03T14:58:29.211Z,15.94
2023-03-03T15:01:15.414Z,16.20
2023-03-03T15:04:09.925Z,16.44
2023-03-03T15:06:45.316Z,16.24
2023-03-03T15:09:24.015Z,15.80
2023-03-03T15:11:52.491Z,15.46
2023-03-03T15:14:23.992Z,15.51
2023-03-03T15:16:50.666Z,15.63
2023-03-03T15:19:39.406Z,15.78
2023-03-03T15:22:20.003Z,15.75
2023-03-03T15:25:21.150Z,15.69
2023-03-03T15:28:34.664Z,15.47
2023-03-03T15:31:06.853Z,15.54
2023-03-03T15:33:52.088Z,15.35
2023-03-03T15:36:43.791Z,15.23
2023-03-03T15:39:39.558Z,15.07
2023-03-03T15:42:14.903Z,14.79
2023-03-03T15:45:08.386Z,14.99
2023-03-03T15:47:47.085Z,14.96
2023-03-03T15:50:34.157Z,14.90
2023-03-03T15:53:38.154Z,15.05
2023-03-03T15:56:14.443Z,15.12
2023-03-03T15:58:44.034Z,14.84
2023-03-03T16:01:29.717Z,14.69
2023-03-03T16:04:00.815Z,14.56
2023-03-03T16:06:48.092Z,14.73
2023-03-03T16:09:14.634Z,14.71
2023-03-03T16:11:49.684Z,14.83
2023-03-03T16:14:55.200Z,15.26
2023-03-03T16:18:08.626Z,15.38
2023-03-03T16:20:55.677Z,15.51
2023-03-03T16:23:25.136Z,15.65
2023-03-03T16:25:58.138Z,15.57
2023-03-03T16:29:14.918Z,15.53
2023-03-03T16:31:54.323Z,15.25
2023-03-03T16:34:33.515Z,15.41
2023-03-03T16:37:23.097Z,15.52
2023-03-03T16:40:00.517Z,15.66
2023-03-03T16:42:29.736Z,15.49
2023-03-03T16:45:21.869Z,15.49
2023-03-03T16:47:58.047Z,15.43
2023-03-03T16:50:27.562Z,15.52
2023-03-03T16:53:01.225Z,15.34
2023-03-03T16:55:49.307Z,15.38
2023-03-03T16:58:53.304Z,15.09
2023-03-03T17:01:58.575Z,14.89
2023-03-03T17:04:47.320Z,14.53
2023-03-03T17:07:26.010Z,14.59
2023-03-03T17:10:16.598Z,14.54
2023-03-03T17:13:05.506Z,14.41
2023-03-03T17:15:57.868Z,14.13
2023-03-03T17:19:01.457Z,13.80
2023-03-03T17:21:40.035Z,13.79
2023-03-03T17:24:12.694Z,13.50
2023-03-03T17:26:58.490Z,13.44
2023-03-03T17:29:39.978Z,13.52
2023-03-03T17:32:16.298Z,13.59
2023-03-03T17:35:10.577Z,13.84
2023-03-03T17:37:58.333Z,13.77
2023-03-03T17:40:48.287Z,13.67
2023-03-03T17:43:23.988Z,13.55
2023-03-03T17:45:55.830Z,13.50
2023-03-03T17:48:31.677Z,13.61
2023-03-03T17:51:13.415Z,13.39
2023-03-03T17:54:00.127Z,13.58
2023-03-03T17:56:38.481Z,13.89
2023-03-03T17:59:20.635Z,13.70
2023-03-03T18:02:38.513Z,13.35
2023-03-03T18:05:38.291Z,13.51
2023-03-03T18:08:27.995Z,13.73
2023-03-03T18:11:09.842Z,13.70
2023-03-03T18:14:02.700Z,13.50
2023-03-03T18:17:04.656Z,13.60
2023-03-03T18:20:01.449Z,13.63
2023-03-03T18:22:41.047Z,13.69
2023-03-03T18:25:11.919Z,13.91
2023-03-03T18:28:00.997Z,13.98
2023-03-03T18:30:48.538Z,13.99
2023-03-03T18:33:16.802Z,14.00
2023-03-03T18:35:46.083Z,13.56
2023-03-03T18:38:15.916Z,13.70
2023-03-03T18:41:00.782Z,13.53
2023-03-03T18:43:40.791Z,13.47
2023-03-03T18:46:30.768Z,13.81
2023-03-03T18:49:05.420Z,14.29
2023-03-03T18:51:35.453Z,14.16
2023-03-03T18:54:16.889Z,14.12
2023-03-03T18:57:12.225Z,14.25
2023-03-03T18:59:41.280Z,14.10
2023-03-03T19:02:37.730Z,14.09
2023-03-03T19:05:18.933Z,13.28
2023-03-03T19:07:52.163Z,13.63
2023-03-03T19:10:18.703Z,14.02
2023-03-03T19:12:52.483Z,14.34
2023-03-03T19:15:31.414Z,14.55
2023-03-03T19:18:16.752Z,14.76
2023-03-03T19:21:02.983Z,14.87
2023-03-03T19:23:52.190Z,14.57
2023-03-03T19:26:24.871Z,14.52
2023-03-03T19:28:58.108Z,14.78
2023-03-03T19:31:49.763Z,14.65
2023-03-03T19:34:39.950Z,14.58
2023-03-03T19:37:32.039Z,14.73
2023-03-03T19:40:27.617Z,14.59
2023-03-03T19:43:12.613Z,14.14
2023-03-03T19:46:04.391Z,14.55
2023-03-03T19:48:52.621Z,14.35
2023-03-03T19:51:49.356Z,14.39
2023-03-03T19:54:34.376Z,14.28
2023-03-03T19:57:04.250Z,14.27
2023-03-03T19:59:49.328Z,14.32
2023-03-03T20:02:42.274Z,14.12
2023-03-03T20:05:27.061Z,14.23
2023-03-03T20:08:35.534Z,14.16
2023-03-03T20:11:45.846Z,14.20
2023-03-03T20:14:29.224Z,14.19
2023-03-03T20:17:11.973Z,14.07
2023-03-03T20:20:03.553Z,13.74
2023-03-03T20:22:51.790Z,13.84
2023-03-03T20:25:36.118Z,14.01
2023-03-03T20:28:24.477Z,14.08
2023-03-03T20:31:03.436Z,14.20
2023-03-03T20:33:44.139Z,14.27
2023-03-03T20:36:23.371Z,14.01
2023-03-03T20:39:08.159Z,14.22
2023-03-03T20:41:41.648Z,14.34
2023-03-03T20:44:34.197Z,14.67
2023-03-03T20:47:15.318Z,14.81
2023-03-03T20:50:03.807Z,14.44
2023-03-03T20:52:58.676Z,14.24
2023-03-03T20:55:42.473Z,14.48
2023-03-03T20:58:31.995Z,14.44
2023-03-03T21:01:04.406Z,14.45
2023-03-03T21:03:39.845Z,14.05
2023-03-03T21:06:09.416Z,13.98
2023-03-03T21:08:56.148Z,14.07
2023-03-03T21:11:31.656Z,14.05
2023-03-03T21:13:59.378Z,13.86
2023-03-03T21:16:25.877Z,13.98
2023-03-03T21:19:02.987Z,14.13
2023-03-03T21:21:41.343Z,14.50
2023-03-03T21:24:19.441Z,14.31
2023-03-03T21:26:57.823Z,14.55
2023-03-03T21:29:31.456Z,14.50
2023-03-03T21:32:02.942Z,13.68
2023-03-03T21:34:34.858Z,13.95
2023-03-03T21:37:10.094Z,13.95
2023-03-03T21:39:41.713Z,13.65
2023-03-03T21:42:18.644Z,13.91
2023-03-03T21:44:49.519Z,13.92
2023-03-03T21:47:19.682Z,14.04
2023-03-03T21:49:51.565Z,14.19
2023-03-03T21:52:20.075Z,14.35
2023-03-03T21:54:48.602Z,14.41
2023-03-03T21:57:15.979Z,14.42
2023-03-03T21:59:42.612Z,14.20
2023-03-03T22:02:10.192Z,14.00
2023-03-03T22:04:38.777Z,14.12
2023-03-03T22:07:05.884Z,14.30
2023-03-03T22:09:32.385Z,13.87
2023-03-03T22:11:59.093Z,13.85
2023-03-03T22:14:25.868Z,13.90
2023-03-03T22:16:52.609Z,13.70
2023-03-03T22:19:19.151Z,13.98
2023-03-03T22:21:46.607Z,13.97
2023-03-03T22:24:13.434Z,13.77
2023-03-03T22:26:39.992Z,13.98
2023-03-03T22:29:06.531Z,13.96
2023-03-03T22:31:33.503Z,14.13
2023-03-03T22:34:00.586Z,14.42
2023-03-03T22:36:27.243Z,14.52
2023-03-03T22:38:53.794Z,14.65
2023-03-03T22:41:20.488Z,14.54
2023-03-03T22:43:48.013Z,14.24
2023-03-03T22:46:15.102Z,14.18
2023-03-03T22:48:41.794Z,14.30
2023-03-03T22:51:08.325Z,14.42
2023-03-03T22:53:34.842Z,14.14
2023-03-03T22:56:01.441Z,13.80
2023-03-03T22:58:29.254Z,13.84
2023-03-03T23:00:55.854Z,14.20
2023-03-03T23:03:22.791Z,14.35
2023-03-03T23:05:51.586Z,14.27
2023-03-03T23:08:20.163Z,13.98
2023-03-03T23:10:47.440Z,14.16
2023-03-03T23:13:14.314Z,14.24
2023-03-03T23:15:41.063Z,14.47
2023-03-03T23:18:07.929Z,14.27
2023-03-03T23:20:35.366Z,14.45
2023-03-03T23:23:02.494Z,14.48
2023-03-03T23:25:29.728Z,14.53
2023-03-03T23:27:56.926Z,14.65
2023-03-03T23:30:23.624Z,14.35
2023-03-03T23:32:50.857Z,14.29
2023-03-03T23:35:18.297Z,14.17
2023-03-03T23:37:45.841Z,14.05
2023-03-03T23:40:14.507Z,13.85
2023-03-03T23:42:41.169Z,13.68
2023-03-03T23:45:09.176Z,13.77
2023-03-03T23:47:36.148Z,13.90
2023-03-03T23:50:02.926Z,13.89
2023-03-03T23:52:29.419Z,13.69
2023-03-03T23:54:55.982Z,13.45
2023-03-03T23:57:22.492Z,13.56
2023-03-03T23:59:49.706Z,13.73
